sensor_id;sensor_type;location;lat;lon;timestamp;temperature;humidity
16867;DHT22;8550;52.596;13.320;2024-01-16T00:02:36;1.10;99.90
16867;DHT22;8550;52.596;13.320;2024-01-16T00:07:40;0.70;99.90
16867;DHT22;8550;52.596;13.320;2024-01-16T00:12:42;0.50;99.90
16867;DHT22;8550;52.596;13.320;2024-01-16T00:17:43;0.60;99.90
16867;DHT22;8550;52.596;13.320;2024-01-16T00:22:47;0.60;99.90
16867;DHT22;8550;52.596;13.320;2024-01-16T00:27:49;0.50;99.90
16867;DHT22;8550;52.596;13.320;2024-01-16T00:32:50;0.50;99.90
16867;DHT22;8550;52.596;13.320;2024-01-16T00:37:54;0.50;99.90
16867;DHT22;8550;52.596;13.320;2024-01-16T00:42:56;0.40;99.90
16867;DHT22;8550;52.596;13.320;2024-01-16T00:47:58;0.20;99.90
16867;DHT22;8550;52.596;13.320;2024-01-16T00:53:01;0.00;99.90
16867;DHT22;8550;52.596;13.320;2024-01-16T00:58:03;-0.20;99.90
16867;DHT22;8550;52.596;13.320;2024-01-16T01:03:05;-0.30;99.90
16867;DHT22;8550;52.596;13.320;2024-01-16T01:08:08;-0.40;99.90
16867;DHT22;8550;52.596;13.320;2024-01-16T01:13:10;-0.30;99.90
16867;DHT22;8550;52.596;13.320;2024-01-16T01:18:12;-0.40;99.90
16867;DHT22;8550;52.596;13.320;2024-01-16T01:23:16;-0.50;99.90
16867;DHT22;8550;52.596;13.320;2024-01-16T01:28:17;-0.40;99.90
16867;DHT22;8550;52.596;13.320;2024-01-16T01:33:19;-0.30;99.90
16867;DHT22;8550;52.596;13.320;2024-01-16T01:38:23;-0.30;99.90
16867;DHT22;8550;52.596;13.320;2024-01-16T01:43:25;-0.30;99.90
16867;DHT22;8550;52.596;13.320;2024-01-16T01:48:27;-0.40;99.90
16867;DHT22;8550;52.596;13.320;2024-01-16T01:53:31;-0.40;99.90
16867;DHT22;8550;52.596;13.320;2024-01-16T01:58:34;-0.40;99.90
16867;DHT22;8550;52.596;13.320;2024-01-16T02:03:41;-0.40;99.90
16867;DHT22;8550;52.596;13.320;2024-01-16T02:08:45;-0.40;99.90
16867;DHT22;8550;52.596;13.320;2024-01-16T02:13:47;-0.50;99.90
16867;DHT22;8550;52.596;13.320;2024-01-16T02:18:49;-0.40;99.90
16867;DHT22;8550;52.596;13.320;2024-01-16T02:23:52;-0.50;99.90
16867;DHT22;8550;52.596;13.320;2024-01-16T02:28:54;-0.50;99.90
16867;DHT22;8550;52.596;13.320;2024-01-16T02:33:56;-0.60;99.90
16867;DHT22;8550;52.596;13.320;2024-01-16T02:39:00;-0.80;99.90
16867;DHT22;8550;52.596;13.320;2024-01-16T02:44:02;-1.10;99.90
16867;DHT22;8550;52.596;13.320;2024-01-16T02:49:03;-1.30;99.90
16867;DHT22;8550;52.596;13.320;2024-01-16T02:54:07;-1.40;99.90
16867;DHT22;8550;52.596;13.320;2024-01-16T02:59:09;-1.40;99.90
16867;DHT22;8550;52.596;13.320;2024-01-16T03:04:11;-1.50;99.90
16867;DHT22;8550;52.596;13.320;2024-01-16T03:09:14;-1.70;99.90
16867;DHT22;8550;52.596;13.320;2024-01-16T03:14:16;-1.50;99.90
16867;DHT22;8550;52.596;13.320;2024-01-16T03:19:19;-1.40;99.90
16867;DHT22;8550;52.596;13.320;2024-01-16T03:24:22;-1.40;99.90
16867;DHT22;8550;52.596;13.320;2024-01-16T03:29:24;-1.40;99.90
16867;DHT22;8550;52.596;13.320;2024-01-16T03:34:26;-1.30;99.90
16867;DHT22;8550;52.596;13.320;2024-01-16T03:39:29;-1.10;99.90
16867;DHT22;8550;52.596;13.320;2024-01-16T03:44:31;-1.00;99.90
16867;DHT22;8550;52.596;13.320;2024-01-16T03:49:33;-1.00;99.90
16867;DHT22;8550;52.596;13.320;2024-01-16T03:54:36;-0.90;99.90
16867;DHT22;8550;52.596;13.320;2024-01-16T03:59:38;-1.00;99.90
16867;DHT22;8550;52.596;13.320;2024-01-16T04:04:40;-0.90;99.90
16867;DHT22;8550;52.596;13.320;2024-01-16T04:09:44;-0.80;99.90
16867;DHT22;8550;52.596;13.320;2024-01-16T04:14:46;-0.80;99.90
16867;DHT22;8550;52.596;13.320;2024-01-16T04:19:47;-0.80;99.90
16867;DHT22;8550;52.596;13.320;2024-01-16T04:24:51;-0.80;99.90
16867;DHT22;8550;52.596;13.320;2024-01-16T04:29:53;-0.80;99.90
16867;DHT22;8550;52.596;13.320;2024-01-16T04:34:55;-0.80;99.90
16867;DHT22;8550;52.596;13.320;2024-01-16T04:39:58;-0.90;99.90
16867;DHT22;8550;52.596;13.320;2024-01-16T04:45:00;-0.90;99.90
16867;DHT22;8550;52.596;13.320;2024-01-16T04:50:03;-1.00;99.90
16867;DHT22;8550;52.596;13.320;2024-01-16T04:55:07;-0.90;99.90
16867;DHT22;8550;52.596;13.320;2024-01-16T05:00:10;-1.00;99.90
16867;DHT22;8550;52.596;13.320;2024-01-16T05:05:13;-0.90;99.90
16867;DHT22;8550;52.596;13.320;2024-01-16T05:10:16;-1.00;99.90
16867;DHT22;8550;52.596;13.320;2024-01-16T05:15:18;-1.00;99.90
16867;DHT22;8550;52.596;13.320;2024-01-16T05:20:20;-1.20;99.90
16867;DHT22;8550;52.596;13.320;2024-01-16T05:25:25;-1.20;99.90
16867;DHT22;8550;52.596;13.320;2024-01-16T05:30:27;-1.10;99.90
16867;DHT22;8550;52.596;13.320;2024-01-16T05:35:29;-1.20;99.90
16867;DHT22;8550;52.596;13.320;2024-01-16T05:40:32;-1.20;99.90
16867;DHT22;8550;52.596;13.320;2024-01-16T05:45:34;-1.30;99.90
16867;DHT22;8550;52.596;13.320;2024-01-16T05:50:38;-1.40;99.90
16867;DHT22;8550;52.596;13.320;2024-01-16T05:55:41;-1.40;99.90
16867;DHT22;8550;52.596;13.320;2024-01-16T06:00:43;-1.30;99.90
16867;DHT22;8550;52.596;13.320;2024-01-16T06:05:45;-1.20;99.90
16867;DHT22;8550;52.596;13.320;2024-01-16T06:10:48;-1.20;99.90
16867;DHT22;8550;52.596;13.320;2024-01-16T06:15:50;-1.10;99.90
16867;DHT22;8550;52.596;13.320;2024-01-16T06:20:52;-1.10;99.90
16867;DHT22;8550;52.596;13.320;2024-01-16T06:25:55;-1.00;99.90
16867;DHT22;8550;52.596;13.320;2024-01-16T06:30:58;-0.80;99.90
16867;DHT22;8550;52.596;13.320;2024-01-16T06:36:01;-1.00;99.90
16867;DHT22;8550;52.596;13.320;2024-01-16T06:41:06;-1.10;99.90
16867;DHT22;8550;52.596;13.320;2024-01-16T06:46:07;-1.00;99.90
16867;DHT22;8550;52.596;13.320;2024-01-16T06:51:09;-0.90;99.90
16867;DHT22;8550;52.596;13.320;2024-01-16T06:56:15;-0.90;99.90
16867;DHT22;8550;52.596;13.320;2024-01-16T07:01:18;-0.90;99.90
16867;DHT22;8550;52.596;13.320;2024-01-16T07:06:20;-0.80;99.90
16867;DHT22;8550;52.596;13.320;2024-01-16T07:11:23;-0.90;99.90
16867;DHT22;8550;52.596;13.320;2024-01-16T07:16:25;-0.90;99.90
16867;DHT22;8550;52.596;13.320;2024-01-16T07:21:27;-0.90;99.90
16867;DHT22;8550;52.596;13.320;2024-01-16T07:26:31;-1.10;99.90
16867;DHT22;8550;52.596;13.320;2024-01-16T07:31:33;-1.20;99.90
16867;DHT22;8550;52.596;13.320;2024-01-16T07:36:34;-1.20;99.90
16867;DHT22;8550;52.596;13.320;2024-01-16T07:41:38;-1.10;99.90
16867;DHT22;8550;52.596;13.320;2024-01-16T07:46:40;-0.90;99.90
16867;DHT22;8550;52.596;13.320;2024-01-16T07:51:41;-1.00;99.90
16867;DHT22;8550;52.596;13.320;2024-01-16T07:56:45;-0.80;99.90
16867;DHT22;8550;52.596;13.320;2024-01-16T08:01:47;-0.70;99.90
16867;DHT22;8550;52.596;13.320;2024-01-16T08:06:48;-0.60;99.90
16867;DHT22;8550;52.596;13.320;2024-01-16T08:11:52;-0.30;99.90
16867;DHT22;8550;52.596;13.320;2024-01-16T08:16:54;-0.30;99.90
16867;DHT22;8550;52.596;13.320;2024-01-16T08:21:56;-0.20;99.90
16867;DHT22;8550;52.596;13.320;2024-01-16T08:26:59;-0.10;99.90
16867;DHT22;8550;52.596;13.320;2024-01-16T08:32:01;0.10;99.90
16867;DHT22;8550;52.596;13.320;2024-01-16T08:37:04;0.10;99.90
16867;DHT22;8550;52.596;13.320;2024-01-16T08:42:08;0.30;99.90
16867;DHT22;8550;52.596;13.320;2024-01-16T08:47:12;0.50;99.90
16867;DHT22;8550;52.596;13.320;2024-01-16T08:52:14;0.80;99.90
16867;DHT22;8550;52.596;13.320;2024-01-16T08:57:17;0.70;99.90
16867;DHT22;8550;52.596;13.320;2024-01-16T09:02:19;0.80;99.90
16867;DHT22;8550;52.596;13.320;2024-01-16T09:07:22;0.80;99.90
16867;DHT22;8550;52.596;13.320;2024-01-16T09:12:25;0.70;99.90
16867;DHT22;8550;52.596;13.320;2024-01-16T09:17:27;0.80;99.90
16867;DHT22;8550;52.596;13.320;2024-01-16T09:22:29;1.00;99.90
16867;DHT22;8550;52.596;13.320;2024-01-16T09:27:32;0.90;99.90
16867;DHT22;8550;52.596;13.320;2024-01-16T09:32:34;0.90;99.90
16867;DHT22;8550;52.596;13.320;2024-01-16T09:37:37;0.90;99.90
16867;DHT22;8550;52.596;13.320;2024-01-16T09:42:41;1.00;99.90
16867;DHT22;8550;52.596;13.320;2024-01-16T09:47:44;1.00;99.90
16867;DHT22;8550;52.596;13.320;2024-01-16T09:52:47;1.10;99.90
16867;DHT22;8550;52.596;13.320;2024-01-16T09:57:52;1.10;99.90
16867;DHT22;8550;52.596;13.320;2024-01-16T10:02:54;1.20;99.90
16867;DHT22;8550;52.596;13.320;2024-01-16T10:07:59;1.30;99.90
16867;DHT22;8550;52.596;13.320;2024-01-16T10:13:03;1.30;99.90
16867;DHT22;8550;52.596;13.320;2024-01-16T10:18:05;1.50;99.90
16867;DHT22;8550;52.596;13.320;2024-01-16T10:23:07;1.60;99.90
16867;DHT22;8550;52.596;13.320;2024-01-16T10:28:10;1.90;99.90
16867;DHT22;8550;52.596;13.320;2024-01-16T10:33:13;2.20;99.90
16867;DHT22;8550;52.596;13.320;2024-01-16T10:38:20;2.30;99.90
16867;DHT22;8550;52.596;13.320;2024-01-16T10:43:24;2.40;99.90
16867;DHT22;8550;52.596;13.320;2024-01-16T10:48:26;2.60;99.90
16867;DHT22;8550;52.596;13.320;2024-01-16T10:53:32;2.40;99.90
16867;DHT22;8550;52.596;13.320;2024-01-16T10:58:36;2.30;99.90
16867;DHT22;8550;52.596;13.320;2024-01-16T11:03:43;2.20;99.90
16867;DHT22;8550;52.596;13.320;2024-01-16T11:08:48;2.20;99.90
16867;DHT22;8550;52.596;13.320;2024-01-16T11:13:53;2.10;99.90
16867;DHT22;8550;52.596;13.320;2024-01-16T11:18:56;1.90;99.90
16867;DHT22;8550;52.596;13.320;2024-01-16T11:23:58;1.80;99.90
16867;DHT22;8550;52.596;13.320;2024-01-16T11:34:52;1.80;99.90
16867;DHT22;8550;52.596;13.320;2024-01-16T11:40:20;1.80;99.90
16867;DHT22;8550;52.596;13.320;2024-01-16T11:45:53;1.80;99.90
16867;DHT22;8550;52.596;13.320;2024-01-16T11:50:55;1.80;99.90
16867;DHT22;8550;52.596;13.320;2024-01-16T11:56:12;1.90;99.90
16867;DHT22;8550;52.596;13.320;2024-01-16T12:01:17;1.80;99.90
16867;DHT22;8550;52.596;13.320;2024-01-16T12:06:20;2.00;99.90
16867;DHT22;8550;52.596;13.320;2024-01-16T12:11:22;1.90;99.90
16867;DHT22;8550;52.596;13.320;2024-01-16T12:16:26;1.90;99.90
16867;DHT22;8550;52.596;13.320;2024-01-16T12:21:28;1.90;99.90
16867;DHT22;8550;52.596;13.320;2024-01-16T12:26:30;2.00;99.90
16867;DHT22;8550;52.596;13.320;2024-01-16T12:31:34;2.00;99.90
16867;DHT22;8550;52.596;13.320;2024-01-16T12:36:37;1.80;99.90
16867;DHT22;8550;52.596;13.320;2024-01-16T12:41:42;1.80;99.90
16867;DHT22;8550;52.596;13.320;2024-01-16T12:46:54;1.60;99.90
16867;DHT22;8550;52.596;13.320;2024-01-16T12:52:14;1.60;99.90
16867;DHT22;8550;52.596;13.320;2024-01-16T12:57:20;1.80;99.90
16867;DHT22;8550;52.596;13.320;2024-01-16T13:02:24;2.00;99.90
16867;DHT22;8550;52.596;13.320;2024-01-16T13:07:26;2.40;99.90
16867;DHT22;8550;52.596;13.320;2024-01-16T13:12:28;2.50;99.90
16867;DHT22;8550;52.596;13.320;2024-01-16T13:17:35;2.30;99.90
16867;DHT22;8550;52.596;13.320;2024-01-16T13:22:37;2.20;99.90
16867;DHT22;8550;52.596;13.320;2024-01-16T13:27:39;2.20;99.90
16867;DHT22;8550;52.596;13.320;2024-01-16T13:32:42;2.20;99.90
16867;DHT22;8550;52.596;13.320;2024-01-16T13:37:44;2.10;99.90
16867;DHT22;8550;52.596;13.320;2024-01-16T13:42:46;2.10;99.90
16867;DHT22;8550;52.596;13.320;2024-01-16T13:47:49;2.00;99.90
16867;DHT22;8550;52.596;13.320;2024-01-16T13:52:51;2.10;99.90
16867;DHT22;8550;52.596;13.320;2024-01-16T13:57:54;2.00;99.90
16867;DHT22;8550;52.596;13.320;2024-01-16T14:02:57;1.90;99.90
16867;DHT22;8550;52.596;13.320;2024-01-16T14:07:59;1.90;99.90
16867;DHT22;8550;52.596;13.320;2024-01-16T14:13:01;1.80;99.90
16867;DHT22;8550;52.596;13.320;2024-01-16T14:18:06;1.90;99.90
16867;DHT22;8550;52.596;13.320;2024-01-16T14:23:09;1.90;99.90
16867;DHT22;8550;52.596;13.320;2024-01-16T14:28:11;1.90;99.90
16867;DHT22;8550;52.596;13.320;2024-01-16T14:33:14;1.90;99.90
16867;DHT22;8550;52.596;13.320;2024-01-16T14:38:16;1.80;99.90
16867;DHT22;8550;52.596;13.320;2024-01-16T14:43:18;1.70;99.90
16867;DHT22;8550;52.596;13.320;2024-01-16T14:48:21;1.70;99.90
16867;DHT22;8550;52.596;13.320;2024-01-16T14:53:23;1.70;99.90
16867;DHT22;8550;52.596;13.320;2024-01-16T14:58:25;1.70;99.90
16867;DHT22;8550;52.596;13.320;2024-01-16T15:03:28;1.70;99.90
16867;DHT22;8550;52.596;13.320;2024-01-16T15:08:31;1.70;99.90
16867;DHT22;8550;52.596;13.320;2024-01-16T15:13:34;1.60;99.90
16867;DHT22;8550;52.596;13.320;2024-01-16T15:18:37;1.60;99.90
16867;DHT22;8550;52.596;13.320;2024-01-16T15:23:39;1.50;99.90
16867;DHT22;8550;52.596;13.320;2024-01-16T15:28:42;1.60;99.90
16867;DHT22;8550;52.596;13.320;2024-01-16T15:33:45;1.60;99.90
16867;DHT22;8550;52.596;13.320;2024-01-16T15:38:47;1.60;99.90
16867;DHT22;8550;52.596;13.320;2024-01-16T15:43:49;1.50;99.90
16867;DHT22;8550;52.596;13.320;2024-01-16T15:48:52;1.40;99.90
16867;DHT22;8550;52.596;13.320;2024-01-16T15:53:56;1.40;99.90
16867;DHT22;8550;52.596;13.320;2024-01-16T15:58:58;1.40;99.90
16867;DHT22;8550;52.596;13.320;2024-01-16T16:04:04;1.30;99.90
16867;DHT22;8550;52.596;13.320;2024-01-16T16:09:07;1.20;99.90
16867;DHT22;8550;52.596;13.320;2024-01-16T16:14:11;1.20;99.90
16867;DHT22;8550;52.596;13.320;2024-01-16T16:19:14;1.10;99.90
16867;DHT22;8550;52.596;13.320;2024-01-16T16:24:16;1.10;99.90
16867;DHT22;8550;52.596;13.320;2024-01-16T16:29:19;1.10;99.90
16867;DHT22;8550;52.596;13.320;2024-01-16T16:34:22;1.20;99.90
16867;DHT22;8550;52.596;13.320;2024-01-16T16:39:25;1.30;99.90
16867;DHT22;8550;52.596;13.320;2024-01-16T16:44:26;1.30;99.90
16867;DHT22;8550;52.596;13.320;2024-01-16T16:49:30;1.40;99.90
16867;DHT22;8550;52.596;13.320;2024-01-16T16:54:32;1.40;99.90
16867;DHT22;8550;52.596;13.320;2024-01-16T16:59:34;1.40;99.90
16867;DHT22;8550;52.596;13.320;2024-01-16T17:04:37;1.50;99.90
16867;DHT22;8550;52.596;13.320;2024-01-16T17:09:40;1.50;99.90
16867;DHT22;8550;52.596;13.320;2024-01-16T17:14:42;1.50;99.90
16867;DHT22;8550;52.596;13.320;2024-01-16T17:19:45;1.50;99.90
16867;DHT22;8550;52.596;13.320;2024-01-16T17:24:48;1.50;99.90
16867;DHT22;8550;52.596;13.320;2024-01-16T17:29:50;1.50;99.90
16867;DHT22;8550;52.596;13.320;2024-01-16T17:34:53;1.50;99.90
16867;DHT22;8550;52.596;13.320;2024-01-16T17:39:55;1.40;99.90
16867;DHT22;8550;52.596;13.320;2024-01-16T17:44:57;1.30;99.90
16867;DHT22;8550;52.596;13.320;2024-01-16T17:50:05;1.20;99.90
16867;DHT22;8550;52.596;13.320;2024-01-16T17:55:09;1.30;99.90
16867;DHT22;8550;52.596;13.320;2024-01-16T18:00:12;1.40;99.90
16867;DHT22;8550;52.596;13.320;2024-01-16T18:05:16;1.50;99.90
16867;DHT22;8550;52.596;13.320;2024-01-16T18:10:18;1.50;99.90
16867;DHT22;8550;52.596;13.320;2024-01-16T18:15:20;1.50;99.90
16867;DHT22;8550;52.596;13.320;2024-01-16T18:20:23;1.40;99.90
16867;DHT22;8550;52.596;13.320;2024-01-16T18:25:29;1.50;99.90
16867;DHT22;8550;52.596;13.320;2024-01-16T18:30:33;1.60;99.90
16867;DHT22;8550;52.596;13.320;2024-01-16T18:35:37;1.50;99.90
16867;DHT22;8550;52.596;13.320;2024-01-16T18:40:39;1.50;99.90
16867;DHT22;8550;52.596;13.320;2024-01-16T18:45:41;1.60;99.90
16867;DHT22;8550;52.596;13.320;2024-01-16T18:50:45;1.50;99.90
16867;DHT22;8550;52.596;13.320;2024-01-16T18:55:49;1.40;99.90
16867;DHT22;8550;52.596;13.320;2024-01-16T19:00:53;1.40;99.90
16867;DHT22;8550;52.596;13.320;2024-01-16T19:05:58;1.50;99.90
16867;DHT22;8550;52.596;13.320;2024-01-16T19:11:00;1.40;99.90
16867;DHT22;8550;52.596;13.320;2024-01-16T19:16:03;1.30;99.90
16867;DHT22;8550;52.596;13.320;2024-01-16T19:21:08;1.50;99.90
16867;DHT22;8550;52.596;13.320;2024-01-16T19:26:10;1.40;99.90
16867;DHT22;8550;52.596;13.320;2024-01-16T19:31:12;1.50;99.90
16867;DHT22;8550;52.596;13.320;2024-01-16T19:36:15;1.50;99.90
16867;DHT22;8550;52.596;13.320;2024-01-16T19:41:17;1.50;99.90
16867;DHT22;8550;52.596;13.320;2024-01-16T19:46:20;1.50;99.90
16867;DHT22;8550;52.596;13.320;2024-01-16T19:51:23;1.40;99.90
16867;DHT22;8550;52.596;13.320;2024-01-16T19:56:26;1.40;99.90
16867;DHT22;8550;52.596;13.320;2024-01-16T20:01:28;1.40;99.90
16867;DHT22;8550;52.596;13.320;2024-01-16T20:06:32;1.40;99.90
16867;DHT22;8550;52.596;13.320;2024-01-16T20:11:34;1.50;99.90
16867;DHT22;8550;52.596;13.320;2024-01-16T20:16:36;1.30;99.90
16867;DHT22;8550;52.596;13.320;2024-01-16T20:21:40;1.40;99.90
16867;DHT22;8550;52.596;13.320;2024-01-16T20:26:44;1.30;99.90
16867;DHT22;8550;52.596;13.320;2024-01-16T20:31:46;1.40;99.90
16867;DHT22;8550;52.596;13.320;2024-01-16T20:36:50;1.40;99.90
16867;DHT22;8550;52.596;13.320;2024-01-16T20:41:56;1.30;99.90
16867;DHT22;8550;52.596;13.320;2024-01-16T20:47:04;1.40;99.90
16867;DHT22;8550;52.596;13.320;2024-01-16T20:52:08;1.30;99.90
16867;DHT22;8550;52.596;13.320;2024-01-16T20:57:10;1.20;99.90
16867;DHT22;8550;52.596;13.320;2024-01-16T21:02:12;1.20;99.90
16867;DHT22;8550;52.596;13.320;2024-01-16T21:07:15;1.20;99.90
16867;DHT22;8550;52.596;13.320;2024-01-16T21:12:18;1.20;99.90
16867;DHT22;8550;52.596;13.320;2024-01-16T21:17:22;1.20;99.90
16867;DHT22;8550;52.596;13.320;2024-01-16T21:22:26;1.30;99.90
16867;DHT22;8550;52.596;13.320;2024-01-16T21:27:27;1.20;99.90
16867;DHT22;8550;52.596;13.320;2024-01-16T21:32:29;1.30;99.90
16867;DHT22;8550;52.596;13.320;2024-01-16T21:37:33;1.30;99.90
16867;DHT22;8550;52.596;13.320;2024-01-16T21:42:35;1.20;99.90
16867;DHT22;8550;52.596;13.320;2024-01-16T21:47:37;1.00;99.90
16867;DHT22;8550;52.596;13.320;2024-01-16T21:52:43;0.90;99.90
16867;DHT22;8550;52.596;13.320;2024-01-16T21:57:45;0.80;99.90
16867;DHT22;8550;52.596;13.320;2024-01-16T22:02:47;0.70;99.90
16867;DHT22;8550;52.596;13.320;2024-01-16T22:07:51;0.80;99.90
16867;DHT22;8550;52.596;13.320;2024-01-16T22:12:53;0.90;99.90
16867;DHT22;8550;52.596;13.320;2024-01-16T22:17:56;0.90;99.90
16867;DHT22;8550;52.596;13.320;2024-01-16T22:23:00;0.90;99.90
16867;DHT22;8550;52.596;13.320;2024-01-16T22:28:02;0.90;99.90
16867;DHT22;8550;52.596;13.320;2024-01-16T22:33:06;0.90;99.90
16867;DHT22;8550;52.596;13.320;2024-01-16T22:38:09;0.80;99.90
16867;DHT22;8550;52.596;13.320;2024-01-16T22:43:12;0.60;99.90
16867;DHT22;8550;52.596;13.320;2024-01-16T22:48:14;0.40;99.90
16867;DHT22;8550;52.596;13.320;2024-01-16T22:53:17;0.30;99.90
16867;DHT22;8550;52.596;13.320;2024-01-16T22:58:19;0.10;99.90
16867;DHT22;8550;52.596;13.320;2024-01-16T23:03:21;0.10;99.90
16867;DHT22;8550;52.596;13.320;2024-01-16T23:08:25;0.00;99.90
16867;DHT22;8550;52.596;13.320;2024-01-16T23:13:27;0.00;99.90
16867;DHT22;8550;52.596;13.320;2024-01-16T23:18:29;-0.10;99.90
16867;DHT22;8550;52.596;13.320;2024-01-16T23:23:33;-0.10;99.90
16867;DHT22;8550;52.596;13.320;2024-01-16T23:28:34;-0.30;99.90
16867;DHT22;8550;52.596;13.320;2024-01-16T23:33:37;-0.30;99.90
16867;DHT22;8550;52.596;13.320;2024-01-16T23:38:40;-0.40;99.90
16867;DHT22;8550;52.596;13.320;2024-01-16T23:43:42;-0.50;99.90
16867;DHT22;8550;52.596;13.320;2024-01-16T23:48:45;-0.60;99.90
16867;DHT22;8550;52.596;13.320;2024-01-16T23:53:49;-0.60;99.90
16867;DHT22;8550;52.596;13.320;2024-01-16T23:58:51;-0.70;99.90
